• Join FlightAware (Why Join?)
  • Login
  • US Flag 
09:50PM EDT


 

Airport Tracker/Info


-or-


 

Live Flight TrackerFlight Track Log ✈ SWA22 ✈ 07-Apr-2013 ✈ KHOU - KDAL

Flight Track Log - Related Links

Times and Time Zones

All times are in EDT time to prevent confusion due to time zone crossing. See the SWA22 flight status page for this flight to view local times or setup timezone preferences in your user account.

Time Position Orientation Groundspeed Altitude Reporting Facility
EDT Latitude Longitude Course Direction KTS MPH feet Rate Location/Type
12:39PM 29.6392 -95.2839 304° West 147 169 500  Level Houston Center
12:40PM 29.6589 -95.3175 304° West 226 260 2,200 2,340 Climbing Houston Center
12:41PM 29.7233 -95.3097 North 254 292 5,100 2,700 Climbing Houston Center
12:42PM 29.7875 -95.2889 16° North 257 296 7,900 2,820 Climbing Houston Center
12:43PM 29.8817 -95.2953 357° North 304 350 11,000 2,760 Climbing Houston Center
12:44PM 29.9750 -95.3219 346° North 331 381 13,700 2,640 Climbing Houston Center
12:45PM 30.0706 -95.3486 346° North 351 404 16,600 2,640 Climbing Houston Center
12:46PM 30.1678 -95.3747 347° North 358 412 19,200 2,340 Climbing Houston Center
12:47PM 30.2667 -95.4031 346° North 365 420 21,500 1,980 Climbing Houston Center
12:48PM 30.3719 -95.4331 346° North 385 443 23,300 1,980 Climbing Houston Center
12:49PM 30.5006 -95.4667 347° North 396 456 25,600 1,980 Climbing Houston Center
12:50PM 30.6133 -95.4936 348° North 411 473 27,400 1,500 Climbing Houston Center
12:51PM 30.7361 -95.5217 349° North 421 484 28,800 1,500 Climbing Houston Center
12:52PM 30.8553 -95.5483 349° North 431 496 30,600 1,740 Climbing Houston Center
12:53PM 30.9717 -95.5742 349° North 425 489 32,400 1,500 Climbing Houston Center
12:54PM 31.0833 -95.6097 345° North 416 479 33,700 1,320 Climbing Houston Center
12:55PM 31.1719 -95.6581 335° Northwest 415 478 35,000 1,200 Climbing Fort Worth Center
12:56PM 31.2750 -95.7144 335° Northwest 402 463 36,000 480 Climbing Fort Worth Center
12:57PM 31.3758 -95.7708 334° Northwest 397 457 36,000 -1,380 Level Fort Worth Center
12:58PM 31.4747 -95.8253 335° Northwest 392 451 33,300 -2,940 Descending Fort Worth Center
12:59PM 31.5756 -95.8819 334° Northwest 392 451 30,100 -3,360 Descending Fort Worth Center
01:00PM 31.6786 -95.9414 334° Northwest 397 457 26,700 -3,000 Descending Fort Worth Center
01:01PM 31.7775 -95.9958 335° Northwest 397 457 24,200 -2,400 Descending Fort Worth Center
01:03PM 31.9644 -96.1008 335° Northwest 363 418 19,600 -2,340 Descending Fort Worth Center
01:04PM 32.0567 -96.1533 334° Northwest 357 411 17,300 -2,340 Descending Fort Worth Center
01:06PM 32.2372 -96.2589 334° Northwest 346 398 12,700 -2,160 Descending Fort Worth Center
01:07PM 32.3128 -96.3022 334° Northwest 340 391 10,800 -1,440 Descending Fort Worth Center
01:08PM 32.4008 -96.3506 335° Northwest 322 371 9,800 -900 Descending Fort Worth Center
01:09PM 32.4681 -96.3892 334° Northwest 304 350 9,000 -840 Descending Fort Worth Center
01:10PM 32.5436 -96.4350 333° Northwest 291 335 8,200 -900 Descending Fort Worth Center
01:11PM 32.6150 -96.4786 333° Northwest 286 329 7,300 -1,020 Descending Fort Worth Center
01:12PM 32.6861 -96.5247 331° Northwest 286 329 6,200 -1,020 Descending Fort Worth Center
01:13PM 32.7472 -96.5786 323° Northwest 286 329 5,300 -840 Descending Fort Worth Center
01:14PM 32.8039 -96.6397 318° Northwest 276 318 4,600 -720 Descending Fort Worth Center
01:14PM 32.8167 -96.6500 326° Northwest 273 314 4,400 -480 Descending Dallas / Fort Worth TRACON
01:15PM 32.8667 -96.7167 312° West 272 313 4,000 -300 Descending Dallas / Fort Worth TRACON
01:16PM 32.9167 -96.7833 312° West 273 314 3,900 -660 Descending Dallas / Fort Worth TRACON
01:17PM 32.9500 -96.8500 301° West 246 283 2,800 -960 Descending Dallas / Fort Worth TRACON
01:18PM 32.9500 -96.9167 270° West 213 245 2,000 -420 Descending Dallas / Fort Worth TRACON
01:19PM 32.9000 -96.9333 196° South 170 196 2,000 -420 Level Dallas / Fort Worth TRACON
01:20PM 32.8833 -96.9000 121° Southeast 125 144 1,300 -720 Descending Dallas / Fort Worth TRACON
01:22PM 32.8471 -96.8518 180° South  Level Estimated
01:29PM 32.8471 -96.8518 180° South  Level Estimated
01:30PM 32.8471 -96.8518 180° South  Level Estimated